Latest Weather Observations for Leonora Airport

IDW60801

Issued at 9:02 am WST Thursday 2 April 2015 (issued every 30 minutes, with the page automatically refreshed every 10 minutes)

About weather observations | Map of weather stations | Latest weather observations for WA | Other Formats
Station Details ID: 012241 Name: LEONORA AERO Lat: -28.88 Lon: 121.32 Height: 370.0 m
Data from the previous 72 hours. | See also: Recent months for locations in Western Australia
Date/Time
WST
Temp
°C
App
Temp
°C
Dew
Point
Rel
Hum
%
Delta-T
°C
Wind Press
QNH
hPa
Press
MSL
hPa
Rain
since 9 am
mm
Dir
 
Spd
km/h
Gust
km/h
Spd
kts
Gust
kts
02/09:00am 17.1 14.4 13.4 79 2.1 ESE 20 28 11 15 1022.6 1021.0 0.0
02/08:30am 17.1 14.6 13.4 79 2.1 ESE 19 28 10 15 1022.7 1021.1 0.0
02/08:10am 16.8 13.7 13.3 80 2.0 ESE 22 30 12 16 1022.5 1020.9 0.0
02/08:00am 16.8 14.0 13.3 80 2.0 ESE 20 28 11 15 1022.5 1020.9 0.0
02/07:30am 16.5 13.9 13.2 81 1.9 ESE 19 28 10 15 1022.3 1020.7 0.0
02/07:20am 16.5 13.7 13.2 81 1.9 ESE 20 30 11 16 1022.4 1020.8 0.0
02/07:00am 16.3 13.5 13.2 82 1.8 ESE 20 30 11 16 1022.0 1020.4 0.0
02/06:47am 16.1 13.3 13.2 83 1.6 ESE 20 30 11 16 1021.8 1020.2 0.0
02/06:30am 16.0 13.4 13.3 84 1.5 ESE 19 28 10 15 1021.9 1020.3 0.0
02/06:00am 16.0 12.8 13.1 83 1.6 ESE 22 32 12 17 1021.7 1020.1 0.0
02/05:44am 16.2 13.1 13.3 83 1.7 ESE 22 33 12 18 1021.5 1019.9 0.0
02/05:30am 16.4 13.6 13.1 81 1.9 ESE 20 30 11 16 1021.4 1019.8 0.0
02/05:00am 16.7 13.5 13.2 80 2.0 ESE 22 35 12 19 1021.4 1019.8 0.0
02/04:30am 16.9 14.2 13.4 80 2.0 ESE 20 26 11 14 1021.0 1019.5 0.0
02/04:00am 16.7 14.2 13.6 82 1.8 ESE 19 26 10 14 1020.8 1019.3 0.0
02/03:30am 16.9 14.4 13.6 81 1.9 ESE 19 30 10 16 1020.9 1019.4 0.0
02/03:00am 17.0 14.5 13.5 80 2.0 ESE 19 26 10 14 1020.8 1019.3 0.0
02/02:30am 17.0 14.3 13.5 80 2.0 ESE 20 28 11 15 1020.9 1019.4 0.0
02/02:00am 17.3 14.3 13.8 80 2.0 ESE 22 30 12 16 1020.8 1019.3 0.0
02/01:30am 17.2 15.7 14.3 83 1.7 ESE 15 24 8 13 1020.9 1019.4 0.0
02/01:00am 17.2 16.1 14.3 83 1.7 ESE 13 20 7 11 1021.2 1019.6 0.0
02/12:30am 17.3 15.8 14.2 82 1.8 ESE 15 22 8 12 1021.3 1019.7 0.0
02/12:00am 17.6 15.3 14.1 80 2.0 ESE 19 28 10 15 1021.4 1019.8 0.0
 
Date/Time
WST
Temp
°C
App
Temp
°C
Dew
Point
Rel
Hum
%
Delta-T
°C
Wind Press
QNH
hPa
Press
MSL
hPa
Rain
since 9 am
mm
Dir
 
Spd
km/h
Gust
km/h
Spd
kts
Gust
kts
01/11:30pm 17.8 16.3 14.1 79 2.2 SE 15 22 8 12 1021.3 1019.7 0.0
01/11:00pm 17.8 17.3 13.7 77 2.4 SE 9 15 5 8 1021.3 1019.7 0.0
01/10:30pm 18.6 17.6 13.5 72 2.9 ESE 11 15 6 8 1021.7 1020.1 0.0
01/10:00pm 19.1 17.4 13.5 70 3.2 ESE 15 19 8 10 1021.7 1020.1 0.0
01/09:30pm 19.5 18.6 13.7 69 3.4 SE 11 17 6 9 1021.9 1020.3 0.0
01/09:00pm 19.6 17.8 13.3 67 3.6 ESE 15 20 8 11 1022.2 1020.6 0.0
01/08:30pm 19.6 18.2 13.5 68 3.5 ESE 13 20 7 11 1022.0 1020.4 0.0
01/08:00pm 19.6 17.7 13.1 66 3.7 SE 15 19 8 10 1021.9 1020.3 0.0
01/07:30pm 19.6 17.6 12.8 65 3.9 SE 15 20 8 11 1021.8 1020.2 0.0
01/07:00pm 19.7 17.5 13.2 66 3.7 SE 17 20 9 11 1021.7 1020.1 0.0
01/06:30pm 19.9 18.0 13.1 65 3.9 SE 15 24 8 13 1021.5 1019.9 0.0
01/06:00pm 20.0 17.8 13.2 65 3.9 SE 17 26 9 14 1021.0 1019.5 0.0
01/05:30pm 20.3 17.1 13.0 63 4.2 SE 22 32 12 17 1020.9 1019.4 0.0
01/05:00pm 20.5 17.8 13.5 64 4.1 SE 20 32 11 17 1020.9 1019.4 0.0
01/04:30pm 20.9 18.4 13.4 62 4.4 SE 19 30 10 16 1020.7 1019.2 0.0
01/04:00pm 20.8 17.2 13.0 61 4.5 SE 24 33 13 18 1020.7 1019.2 0.0
01/03:30pm 20.9 17.2 12.8 60 4.7 SE 24 35 13 19 1020.7 1019.2 0.0
01/03:00pm 21.1 17.9 13.0 60 4.7 SE 22 32 12 17 1020.7 1019.2 0.0
01/02:30pm 21.0 17.0 12.9 60 4.7 SE 26 35 14 19 1020.9 1019.4 0.0
01/02:00pm 20.9 17.0 13.4 62 4.4 SE 26 41 14 22 1020.9 1019.4 0.0
01/01:30pm 20.9 17.4 13.4 62 4.4 SE 24 35 13 19 1021.2 1019.6 0.0
01/01:00pm 21.2 18.0 13.1 60 4.7 ESE 22 32 12 17 1021.3 1019.7 0.0
01/12:30pm 21.1 17.2 13.3 61 4.5 SE 26 35 14 19 1021.5 1019.9 0.0
01/12:00pm 21.1 17.8 14.0 64 4.2 SE 24 35 13 19 1021.9 1020.3 0.0
01/11:30am 20.8 17.0 13.7 64 4.2 SE 26 35 14 19 1022.0 1020.4 0.0
01/11:00am 20.7 17.4 13.9 65 4.0 SE 24 35 13 19 1022.4 1020.8 0.0
01/10:30am 19.5 16.2 13.9 70 3.3 SE 24 35 13 19 1022.6 1021.0 0.0
01/10:00am 19.4 15.4 14.2 72 3.0 ESE 28 35 15 19 1022.6 1021.0 0.0
01/09:30am 20.0 17.2 15.4 75 2.8 SE 24 33 13 18 1022.7 1021.1 0.0
01/09:00am 19.1 15.7 14.8 76 2.5 SE 26 39 14 21 1022.4 1020.8 10.2
01/08:30am 18.8 16.7 15.1 79 2.2 SE 20 33 11 18 1022.4 1020.8 10.2
01/08:13am 18.5 16.1 15.4 82 1.9 ESE 22 32 12 17 1022.4 1020.8 10.2
01/08:00am 18.3 16.2 15.2 82 1.8 ESE 20 32 11 17 1022.2 1020.6 10.2
01/07:30am 18.0 15.6 15.3 84 1.6 SE 22 35 12 19 1021.5 1019.4 10.2
01/07:00am 17.5 15.7 15.5 88 1.2 SE 19 24 10 13 1021.0 1019.0 10.2
01/06:59am 17.4 15.6 15.4 88 1.2 SE 19 24 10 13 1021.0 1019.0 10.2
01/06:30am 17.3 15.9 15.6 90 1.0 SE 17 24 9 13 1020.8 1018.8 10.2
01/06:00am 17.5 17.0 15.8 90 1.0 SSE 13 20 7 11 1020.7 1018.7 10.2
01/05:41am 17.7 17.2 15.9 89 1.1 SE 13 19 7 10 1020.5 1018.5 10.2
01/05:30am 17.9 17.0 15.9 88 1.2 SE 15 24 8 13 1020.4 1018.4 10.2
01/05:00am 18.1 18.0 16.1 88 1.2 SE 11 17 6 9 1020.2 1018.2 10.2
01/04:30am 18.1 16.9 16.1 88 1.2 SE 17 26 9 14 1019.6 1017.5 10.2
01/04:00am 18.0 17.0 16.5 91 0.9 SE 17 24 9 13 1019.3 1017.2 10.2
01/03:47am 17.9 18.3 16.4 91 0.9 SE 9 13 5 7 1019.4 1017.3 10.2
01/03:30am 17.9 17.6 16.4 91 0.9 SSE 13 19 7 10 1019.3 1017.2 10.2
01/03:00am 18.1 18.2 16.4 90 1.0 SE 11 17 6 9 1019.1 1017.0 10.2
01/02:30am 18.4 18.2 16.6 89 1.1 SE 13 19 7 10 1018.9 1016.8 10.2
01/02:00am 18.8 18.6 16.8 88 1.2 SE 13 17 7 9 1019.0 1016.9 10.2
01/01:30am 18.8 19.1 16.9 89 1.2 SE 11 15 6 8 1019.2 1017.1 10.2
01/01:00am 18.9 18.8 16.9 88 1.2 SE 13 20 7 11 1019.3 1017.2 10.2
01/12:46am 19.0 18.6 17.1 89 1.2 SE 15 20 8 11 1019.3 1017.2 10.2
01/12:30am 19.1 19.3 17.6 91 0.9 SE 13 19 7 10 1019.1 1017.0 10.2
01/12:00am 19.2 19.5 18.0 93 0.7 SSE 13 20 7 11 1018.9 1016.8 10.2
 
Date/Time
WST
Temp
°C
App
Temp
°C
Dew
Point
Rel
Hum
%
Delta-T
°C
Wind Press
QNH
hPa
Press
MSL
hPa
Rain
since 9 am
mm
Dir
 
Spd
km/h
Gust
km/h
Spd
kts
Gust
kts
31/11:30pm 19.3 19.8 18.3 94 0.6 SSE 13 17 7 9 1018.7 1016.6 10.2
31/11:00pm 19.3 20.2 18.5 95 0.5 SSE 11 15 6 8 1019.0 1016.9 10.2
31/10:55pm 19.3 20.2 18.5 95 0.5 SSE 11 15 6 8 1019.1 1017.0 10.2
31/10:32pm 19.3 20.2 18.5 95 0.5 SE 11 15 6 8 1019.2 1017.1 10.0
31/10:30pm 19.3 20.2 18.5 95 0.5 SE 11 15 6 8 1019.2 1017.1 10.0
31/10:19pm 19.3 19.9 18.5 95 0.5 SSE 13 17 7 9 1019.2 1017.1 10.0
31/10:10pm 19.3 20.2 18.5 95 0.5 SSE 11 15 6 8 1019.3 1017.2 10.0
31/10:00pm 19.2 20.0 18.2 94 0.6 SSE 11 15 6 8 1019.3 1017.2 9.8
31/09:32pm 19.4 19.8 18.2 93 0.8 S 13 15 7 8 1019.6 1017.5 9.2
31/09:30pm 19.4 19.8 18.2 93 0.8 S 13 19 7 10 1019.5 1017.4 9.0
31/09:00pm 19.8 22.9 18.6 93 0.8 CALM 0 4 0 2 1019.0 1016.9 8.6
31/08:30pm 19.6 22.6 18.4 93 0.8 CALM 0 0 0 0 1018.4 1016.3 8.6
31/08:00pm 19.9 21.6 18.6 92 0.8 N 7 7 4 4 1018.3 1016.2 8.6
31/07:30pm 20.2 21.7 18.9 92 0.8 N 9 13 5 7 1018.4 1016.3 8.6
31/07:00pm 20.4 22.0 19.1 92 0.8 N 9 11 5 6 1018.1 1016.1 8.6
31/06:30pm 20.3 21.8 18.8 91 1.0 NNW 9 13 5 7 1017.5 1015.5 8.6
31/06:00pm 20.4 22.1 18.5 89 1.2 WNW 7 11 4 6 1017.2 1015.1 8.6
31/05:30pm 20.5 20.7 18.6 89 1.2 NNW 15 20 8 11 1017.1 1015.0 8.6
31/05:00pm 20.8 20.9 19.1 90 1.1 NNW 17 24 9 13 1016.8 1014.7 8.6
31/04:30pm 20.8 20.6 19.3 91 1.0 NNW 19 26 10 14 1016.4 1014.3 8.6
31/04:00pm 20.3 20.0 19.1 93 0.8 NW 19 28 10 15 1016.4 1014.3 8.6
31/03:50pm 20.3 20.8 19.3 94 0.6 NNW 15 20 8 11 1016.4 1014.3 8.6
31/03:30pm 20.0 21.2 19.0 94 0.6 NW 11 20 6 11 1016.2 1014.1 7.8
31/03:22pm 20.0 20.4 19.0 94 0.6 WNW 15 20 8 11 1016.7 1014.6 3.8
31/03:00pm 20.5 19.5 18.8 90 1.1 NNW 22 30 12 16 1016.3 1014.2 0.2
31/02:51pm 20.8 19.6 18.4 86 1.5 NNW 22 32 12 17 1016.3 1014.2 0.2
31/02:30pm 22.1 21.3 17.9 77 2.7 NNW 19 24 10 13 1016.3 1014.2 0.2
31/02:00pm 21.8 20.7 17.8 78 2.5 NNW 20 30 11 16 1016.4 1014.3 0.2
31/01:30pm 22.0 20.5 17.6 76 2.8 NNW 22 30 12 16 1016.6 1014.5 0.2
31/01:00pm 21.7 20.5 17.5 77 2.6 NNW 20 28 11 15 1017.0 1014.9 0.2
31/12:30pm 21.9 18.9 16.8 73 3.2 NNW 28 37 15 20 1017.5 1015.5 0.2
31/12:00pm 22.2 20.7 16.7 71 3.4 NNW 20 35 11 19 1017.5 1015.5 0.2
31/11:30am 21.4 21.5 17.4 78 2.5 NW 13 15 7 8 1017.8 1015.8 0.2
31/11:00am 20.8 20.4 17.2 80 2.2 NW 15 20 8 11 1018.1 1016.1 0.2
31/10:32am 20.2 19.6 17.6 85 1.6 NW 17 24 9 13 1018.5 1016.4 0.2
31/10:30am 20.2 19.7 17.8 86 1.5 NW 17 24 9 13 1018.5 1016.4 0.2
31/10:18am 20.2 18.9 17.2 83 1.9 NNW 20 35 11 19 1018.7 1016.6 0.2
31/10:00am 21.4 20.0 17.0 76 2.7 NNW 20 33 11 18 1018.4 1016.3 0.0
31/09:30am 21.2 20.0 17.4 79 2.4 NNW 20 26 11 14 1018.1 1016.1 0.0
31/09:00am 21.0 18.5 17.0 78 2.5 N 26 35 14 19 1018.1 1016.1 10.4
31/08:30am 21.1 18.5 16.9 77 2.6 N 26 39 14 21 1018.4 1016.3 10.4
31/08:00am 20.7 18.8 16.7 78 2.5 N 22 33 12 18 1018.5 1016.4 10.4
31/07:30am 20.2 19.1 17.2 83 1.9 N 19 26 10 14 1018.1 1016.1 10.4
31/07:00am 19.9 18.9 17.5 86 1.5 NNE 19 24 10 13 1017.9 1015.9 10.4
31/06:30am 19.7 20.0 17.8 89 1.2 NNE 13 19 7 10 1017.9 1015.9 10.4
31/06:00am 19.5 20.3 18.2 92 0.8 ENE 11 17 6 9 1017.8 1015.8 10.4
31/05:30am 19.5 19.5 18.0 91 0.9 NE 15 26 8 14 1017.7 1015.7 10.4
31/05:00am 19.5 19.0 17.8 90 1.1 NNE 17 22 9 12 1017.9 1015.9 10.4
31/04:30am 19.5 19.2 18.2 92 0.8 NNE 17 32 9 17 1017.8 1015.8 9.8
31/04:00am 19.5 20.0 18.3 93 0.8 NE 13 17 7 9 1017.7 1015.7 9.2
31/03:30am 19.5 20.0 18.3 93 0.8 NNE 13 19 7 10 1017.9 1015.9 8.2
31/03:00am 19.5 19.5 18.2 92 0.8 N 15 19 8 10 1018.4 1016.3 7.8
31/02:30am 19.5 20.1 18.5 94 0.6 NNE 13 17 7 9 1018.7 1016.6 7.6
31/02:00am 19.5 20.4 18.3 93 0.8 NNE 11 15 6 8 1019.0 1016.9 7.2
31/01:30am 19.5 20.7 18.3 93 0.8 NNE 9 13 5 7 1019.3 1017.2 6.8
31/01:00am 19.5 20.7 18.3 93 0.8 NNE 9 11 5 6 1019.5 1017.4 5.8
31/12:30am 19.4 21.5 18.1 92 0.8 NNE 4 9 2 5 1019.9 1017.9 5.4
31/12:00am 19.3 21.0 18.0 92 0.8 NNW 6 7 3 4 1020.2 1018.2 5.0
 
Date/Time
WST
Temp
°C
App
Temp
°C
Dew
Point
Rel
Hum
%
Delta-T
°C
Wind Press
QNH
hPa
Press
MSL
hPa
Rain
since 9 am
mm
Dir
 
Spd
km/h
Gust
km/h
Spd
kts
Gust
kts
30/11:30pm 19.4 20.5 17.9 91 0.9 WNW 9 13 5 7 1020.6 1018.6 3.8
30/11:00pm 19.6 20.4 18.1 91 0.9 W 11 13 6 7 1020.5 1018.5 3.4
30/10:30pm 19.7 20.4 18.0 90 1.1 W 11 15 6 8 1020.8 1018.8 2.8
30/10:00pm 19.8 20.2 18.1 90 1.1 WSW 13 17 7 9 1021.0 1019.0 2.2
30/09:30pm 20.1 20.5 18.2 89 1.2 WSW 13 19 7 10 1021.0 1019.0 1.4
30/09:00pm 20.6 21.3 18.0 85 1.6 WSW 11 17 6 9 1020.9 1018.9 0.4
30/08:30pm 21.1 21.4 17.9 82 2.0 W 13 17 7 9 1020.7 1018.7 0.2
30/08:00pm 22.0 20.8 17.4 75 2.9 W 20 28 11 15 1020.5 1018.5 0.0
30/07:30pm 24.4 22.5 15.1 56 5.7 WNW 19 26 10 14 1020.1 1018.1 0.0
30/07:00pm 25.9 22.8 13.4 46 7.4 WNW 22 28 12 15 1019.4 1017.3 0.0
30/06:30pm 26.8 24.7 12.4 40 8.5 WNW 15 20 8 11 1018.7 1016.6 0.0
30/06:00pm 27.2 24.7 12.4 40 8.7 W 17 24 9 13 1018.1 1016.1 0.0
30/05:30pm 27.5 25.5 12.7 40 8.8 WSW 15 20 8 11 1017.7 1015.7 0.0
30/05:00pm 27.9 25.4 12.3 38 9.2 WSW 17 24 9 13 1017.6 1015.6 0.0
30/04:30pm 28.5 24.9 12.0 36 9.7 W 22 32 12 17 1017.6 1015.6 0.0
30/04:00pm 29.7 25.1 9.8 29 11.4 WNW 24 35 13 19 1017.4 1015.4 0.0
30/03:30pm 31.0 29.7 7.5 23 13.0 NW 4 9 2 5 1016.7 1014.6 0.0
30/03:00pm 31.2 28.7 8.2 24 12.9 N 11 20 6 11 1016.9 1014.8 0.0
30/02:30pm 31.2 27.8 7.6 23 13.1 NNW 15 24 8 13 1017.0 1014.9 0.0
30/02:00pm 31.7 27.6 8.0 23 13.3 N 19 28 10 15 1017.1 1015.0 0.0
30/01:30pm 32.1 29.3 8.4 23 13.4 N 13 26 7 14 1017.2 1015.1 0.0
30/01:00pm 32.0 28.1 7.0 21 13.8 N 17 26 9 14 1017.6 1015.6 0.0
30/12:30pm 31.2 27.0 7.6 23 13.1 N 19 30 10 16 1017.9 1015.9 0.0
30/12:00pm 31.4 28.4 7.8 23 13.2 NE 13 26 7 14 1018.3 1016.2 0.0
30/11:30am 31.0 28.2 8.7 25 12.6 NNE 13 24 7 13 1019.0 1016.9 0.0
30/11:00am 30.2 27.2 9.1 27 11.9 NE 15 24 8 13 1019.5 1017.4 0.0
30/10:30am 29.2 25.5 9.3 29 11.3 NE 19 28 10 15 1019.9 1017.9 0.0
30/10:00am 28.6 24.7 9.3 30 10.9 NE 20 30 11 16 1020.1 1018.1 0.0
30/09:30am 27.4 23.5 9.3 32 10.2 NNE 20 30 11 16 1020.2 1018.2 0.0

Other Formats:

Comma delimited format used in spreadsheet applications
http://www.bom.gov.au/fwo/IDW60801/IDW60801.94450.axf

JavaScript Object Notation format (JSON) in row-major order
http://www.bom.gov.au/fwo/IDW60801/IDW60801.94450.json